createdAt,value
2018-08-30T00:00:50.865Z,76.77
2018-08-30T00:01:50.750Z,74.85
2018-08-30T00:02:50.622Z,76.77
2018-08-30T00:03:50.499Z,77.34
2018-08-30T00:04:50.376Z,75.20
2018-08-30T00:05:50.254Z,77.15
2018-08-30T00:06:50.131Z,72.37
2018-08-30T00:07:50.010Z,78.49
2018-08-30T00:08:49.886Z,80.11
2018-08-30T00:09:49.767Z,82.12
2018-08-30T00:10:49.643Z,81.93
2018-08-30T00:11:49.526Z,79.22
2018-08-30T00:12:49.430Z,78.83
2018-08-30T00:13:49.280Z,75.96
2018-08-30T00:14:49.160Z,75.96
2018-08-30T00:15:49.032Z,71.22
2018-08-30T00:16:48.915Z,73.33
2018-08-30T00:17:48.788Z,73.14
2018-08-30T00:18:48.670Z,72.47
2018-08-30T00:19:48.543Z,75.24
2018-08-30T00:20:48.424Z,76.48
2018-08-30T00:21:48.302Z,80.21
2018-08-30T00:22:48.180Z,84.70
2018-08-30T00:23:48.058Z,86.33
2018-08-30T00:24:47.938Z,82.51
2018-08-30T00:25:47.812Z,82.41
2018-08-30T00:26:47.694Z,76.25
2018-08-30T00:27:47.568Z,72.33
2018-08-30T00:28:47.449Z,68.13
2018-08-30T00:29:47.327Z,68.70
2018-08-30T00:30:47.205Z,68.80
2018-08-30T00:31:47.081Z,66.03
2018-08-30T00:32:46.961Z,70.81
2018-08-30T00:33:46.840Z,72.05
2018-08-30T00:34:46.715Z,73.80
2018-08-30T00:35:46.594Z,75.62
2018-08-30T00:36:46.477Z,76.20
2018-08-30T00:37:46.353Z,77.25
2018-08-30T00:38:46.228Z,78.78
2018-08-30T00:39:46.106Z,78.97
2018-08-30T00:40:45.989Z,79.54
2018-08-30T00:41:45.866Z,81.65
2018-08-30T00:42:45.741Z,82.98
2018-08-30T00:43:45.618Z,82.12
2018-08-30T00:44:45.504Z,84.32
2018-08-30T00:45:45.376Z,85.38
2018-08-30T00:46:45.259Z,85.94
2018-08-30T00:47:45.132Z,87.48
2018-08-30T00:48:45.011Z,86.90
2018-08-30T00:49:44.889Z,86.90
2018-08-30T00:50:44.766Z,90.06
2018-08-30T00:51:44.645Z,86.61
2018-08-30T00:52:44.523Z,83.37
2018-08-30T00:53:44.403Z,76.35
2018-08-30T00:54:44.281Z,70.61
2018-08-30T00:55:44.157Z,68.51
2018-08-30T00:56:44.035Z,62.75
2018-08-30T00:57:43.919Z,56.73
2018-08-30T00:58:43.792Z,54.15
2018-08-30T00:59:43.671Z,50.52
2018-08-30T01:00:43.547Z,46.03
2018-08-30T01:01:43.431Z,40.11
2018-08-30T01:02:43.304Z,38.20
2018-08-30T01:03:43.181Z,38.09
2018-08-30T01:04:43.062Z,34.86
2018-08-30T01:05:42.938Z,31.02
2018-08-30T01:06:42.816Z,29.30
2018-08-30T01:07:42.693Z,32.07
2018-08-30T01:08:42.574Z,33.41
2018-08-30T01:09:42.449Z,30.35
2018-08-30T01:10:42.330Z,31.12
2018-08-30T01:11:42.205Z,30.07
2018-08-30T01:12:42.085Z,27.68
2018-08-30T01:13:41.960Z,26.92
2018-08-30T01:14:41.837Z,30.27
2018-08-30T01:15:41.714Z,36.39
2018-08-30T01:16:41.593Z,46.22
2018-08-30T01:17:41.472Z,47.56
2018-08-30T01:18:41.348Z,47.94
2018-08-30T01:19:41.224Z,50.33
2018-08-30T01:20:41.104Z,49.66
2018-08-30T01:21:40.981Z,50.62
2018-08-30T01:22:40.859Z,52.17
2018-08-30T01:23:40.737Z,56.38
2018-08-30T01:24:40.613Z,58.67
2018-08-30T01:25:40.491Z,59.63
2018-08-30T01:26:40.370Z,61.25
2018-08-30T01:27:40.249Z,66.70
2018-08-30T01:28:40.126Z,71.38
2018-08-30T01:29:40.003Z,69.09
2018-08-30T01:30:39.890Z,65.64
2018-08-30T01:31:39.757Z,66.60
2018-08-30T01:32:39.636Z,68.80
2018-08-30T01:33:39.518Z,62.46
2018-08-30T01:34:39.392Z,56.54
2018-08-30T01:35:39.272Z,53.20
2018-08-30T01:36:39.146Z,52.05
2018-08-30T01:37:39.024Z,50.33
2018-08-30T01:38:38.903Z,52.05
2018-08-30T01:39:38.781Z,51.19
2018-08-30T01:40:38.664Z,52.65
2018-08-30T01:41:38.537Z,56.67
2018-08-30T01:42:38.413Z,59.63
2018-08-30T01:43:38.293Z,60.58
2018-08-30T01:44:38.173Z,65.64
2018-08-30T01:45:38.048Z,67.46
2018-08-30T01:46:37.929Z,68.99
2018-08-30T01:47:37.804Z,65.23
2018-08-30T01:48:37.682Z,63.13
2018-08-30T01:49:37.560Z,60.01
2018-08-30T01:50:37.438Z,55.52
2018-08-30T01:51:37.313Z,54.27
2018-08-30T01:52:37.194Z,50.64
2018-08-30T01:53:37.071Z,45.94
2018-08-30T01:54:36.947Z,42.60
2018-08-30T01:55:36.828Z,39.25
2018-08-30T01:56:36.704Z,36.58
2018-08-30T01:57:36.581Z,34.38
2018-08-30T01:58:36.461Z,32.66
2018-08-30T01:59:36.337Z,27.68
2018-08-30T02:00:36.216Z,24.05
2018-08-30T02:01:36.093Z,22.14
2018-08-30T02:02:35.977Z,19.38
2018-08-30T02:03:35.845Z,16.71
2018-08-30T02:04:35.726Z,15.56
2018-08-30T02:05:35.603Z,15.37
2018-08-30T02:06:35.478Z,16.51
2018-08-30T02:07:35.356Z,16.13
2018-08-30T02:08:35.236Z,16.61
2018-08-30T02:09:35.110Z,16.42
2018-08-30T02:10:34.991Z,15.17
2018-08-30T02:11:34.866Z,15.66
2018-08-30T02:12:34.743Z,18.80
2018-08-30T02:13:34.621Z,21.30
2018-08-30T02:14:34.499Z,26.64
2018-08-30T02:15:34.375Z,31.80
2018-08-30T02:16:34.252Z,35.91
2018-08-30T02:17:34.131Z,34.28
2018-08-30T02:18:34.017Z,29.80
2018-08-30T02:19:33.883Z,25.98
2018-08-30T02:20:33.764Z,23.88
2018-08-30T02:21:33.644Z,21.30
2018-08-30T02:22:33.519Z,16.81
2018-08-30T02:23:33.395Z,14.32
2018-08-30T02:24:33.277Z,12.03
2018-08-30T02:25:33.149Z,8.88
2018-08-30T02:26:33.030Z,6.21
2018-08-30T02:27:32.910Z,3.63
2018-08-30T02:28:32.783Z,2.00
2018-08-30T02:29:32.663Z,1.62
2018-08-30T02:30:32.536Z,0.00
2018-08-30T02:31:32.411Z,0.00
2018-08-30T02:32:32.289Z,0.00
2018-08-30T02:33:32.167Z,0.00
2018-08-30T02:34:32.048Z,0.00
2018-08-30T02:35:31.921Z,0.00
2018-08-30T02:36:31.801Z,1.72
2018-08-30T02:37:31.676Z,4.20
2018-08-30T02:38:31.555Z,5.92
2018-08-30T02:39:31.429Z,7.45
2018-08-30T02:40:31.310Z,15.66
2018-08-30T02:41:31.187Z,18.81
2018-08-30T02:42:31.064Z,21.77
2018-08-30T02:43:30.937Z,25.12
2018-08-30T02:44:30.815Z,26.84
2018-08-30T02:45:30.692Z,27.70
2018-08-30T02:46:30.571Z,27.12
2018-08-30T02:47:30.448Z,25.79
2018-08-30T02:48:30.331Z,23.88
2018-08-30T02:49:30.201Z,23.88
2018-08-30T02:50:30.081Z,27.22
2018-08-30T02:51:29.960Z,29.05
2018-08-30T02:52:29.833Z,31.53
2018-08-30T02:53:29.709Z,36.12
2018-08-30T02:54:29.594Z,38.22
2018-08-30T02:55:29.468Z,41.47
2018-08-30T02:56:29.344Z,43.38
2018-08-30T02:57:29.219Z,42.81
2018-08-30T02:58:29.098Z,41.45
2018-08-30T02:59:28.973Z,40.61
2018-08-30T03:00:28.853Z,42.60
2018-08-30T03:01:28.730Z,40.20
2018-08-30T03:02:28.608Z,38.20
2018-08-30T03:03:28.490Z,36.39
2018-08-30T03:04:28.360Z,33.91
2018-08-30T03:05:28.242Z,29.99
2018-08-30T03:06:28.114Z,28.08
2018-08-30T03:07:27.993Z,27.60
2018-08-30T03:08:27.871Z,28.17
2018-08-30T03:09:27.747Z,31.04
2018-08-30T03:10:27.628Z,34.57
2018-08-30T03:11:27.503Z,39.35
2018-08-30T03:12:27.379Z,44.05
2018-08-30T03:13:27.255Z,45.96
2018-08-30T03:14:27.134Z,50.52
2018-08-30T03:15:27.013Z,45.75
2018-08-30T03:16:26.888Z,41.45
2018-08-30T03:17:26.766Z,36.39
2018-08-30T03:18:26.648Z,34.19
2018-08-30T03:19:26.518Z,31.61
2018-08-30T03:20:26.398Z,29.03
2018-08-30T03:21:26.277Z,28.27
2018-08-30T03:22:26.154Z,27.70
2018-08-30T03:23:26.033Z,28.17
2018-08-30T03:24:25.909Z,29.99
2018-08-30T03:25:25.788Z,31.80
2018-08-30T03:26:25.668Z,30.85
2018-08-30T03:27:25.539Z,27.98
2018-08-30T03:28:25.418Z,27.70
2018-08-30T03:29:25.294Z,26.84
2018-08-30T03:30:25.265Z,29.41
2018-08-30T03:31:25.053Z,32.66
2018-08-30T03:32:24.931Z,32.47
2018-08-30T03:33:24.804Z,33.42
2018-08-30T03:34:24.684Z,35.33
2018-08-30T03:35:24.560Z,38.20
2018-08-30T03:36:24.437Z,39.35
2018-08-30T03:37:24.314Z,41.38
2018-08-30T03:38:24.192Z,41.18
2018-08-30T03:39:24.071Z,38.41
2018-08-30T03:40:23.948Z,38.89
2018-08-30T03:41:23.825Z,36.60
2018-08-30T03:42:23.709Z,33.92
2018-08-30T03:43:23.579Z,31.42
2018-08-30T03:44:23.457Z,29.22
2018-08-30T03:45:23.335Z,27.12
2018-08-30T03:46:23.213Z,24.16
2018-08-30T03:47:23.092Z,23.30
2018-08-30T03:48:22.967Z,21.48
2018-08-30T03:49:22.851Z,18.52
2018-08-30T03:50:22.722Z,16.90
2018-08-30T03:51:22.600Z,15.28
2018-08-30T03:52:22.479Z,13.18
2018-08-30T03:53:22.356Z,11.84
2018-08-30T03:54:22.231Z,10.50
2018-08-30T03:55:22.110Z,11.55
2018-08-30T03:56:21.985Z,16.04
2018-08-30T03:57:21.864Z,20.43
2018-08-30T03:58:21.742Z,24.93
2018-08-30T03:59:21.617Z,25.59
2018-08-30T04:00:21.494Z,25.98
2018-08-30T04:01:21.375Z,25.02
2018-08-30T04:02:21.248Z,25.50
2018-08-30T04:03:21.129Z,29.32
2018-08-30T04:04:21.101Z,29.22
2018-08-30T04:05:20.881Z,26.93
2018-08-30T04:06:20.760Z,26.45
2018-08-30T04:07:20.636Z,25.02
2018-08-30T04:08:20.513Z,28.84
2018-08-30T04:09:20.389Z,33.33
2018-08-30T04:10:20.274Z,40.78
2018-08-30T04:11:20.141Z,42.79
2018-08-30T04:12:20.020Z,41.45
2018-08-30T04:13:19.900Z,44.02
2018-08-30T04:14:19.776Z,40.11
2018-08-30T04:15:19.650Z,39.64
2018-08-30T04:16:19.530Z,39.83
2018-08-30T04:17:19.407Z,41.45
2018-08-30T04:18:19.291Z,40.88
2018-08-30T04:19:19.160Z,42.21
2018-08-30T04:20:19.037Z,42.79
2018-08-30T04:21:18.925Z,45.84
2018-08-30T04:22:18.792Z,45.84
2018-08-30T04:23:18.667Z,44.31
2018-08-30T04:24:18.546Z,43.26
2018-08-30T04:25:18.422Z,48.99
2018-08-30T04:26:18.302Z,49.38
2018-08-30T04:27:18.179Z,44.12
2018-08-30T04:28:18.058Z,41.45
2018-08-30T04:29:17.933Z,38.96
2018-08-30T04:30:17.811Z,42.50
2018-08-30T04:31:17.738Z,42.88
2018-08-30T04:32:17.567Z,41.26
2018-08-30T04:33:17.442Z,42.21
2018-08-30T04:34:17.320Z,44.12
2018-08-30T04:35:17.198Z,40.11
2018-08-30T04:36:17.079Z,34.95
2018-08-30T04:37:16.950Z,32.28
2018-08-30T04:38:16.835Z,33.81
2018-08-30T04:39:16.706Z,32.28
2018-08-30T04:40:16.584Z,35.91
2018-08-30T04:41:16.459Z,36.10
2018-08-30T04:42:16.390Z,35.14
2018-08-30T04:43:16.228Z,34.86
2018-08-30T04:44:16.093Z,36.10
2018-08-30T04:45:15.970Z,38.01
2018-08-30T04:46:15.847Z,37.05
2018-08-30T04:47:15.722Z,38.39
2018-08-30T04:48:15.604Z,39.54
2018-08-30T04:49:15.483Z,41.45
2018-08-30T04:50:15.448Z,42.11
2018-08-30T04:51:15.232Z,37.73
2018-08-30T04:52:15.112Z,35.14
2018-08-30T04:53:14.989Z,33.23
2018-08-30T04:54:14.867Z,34.28
2018-08-30T04:55:14.745Z,33.71
2018-08-30T04:56:14.620Z,29.80
2018-08-30T04:57:14.499Z,26.07
2018-08-30T04:58:14.377Z,21.58
2018-08-30T04:59:14.253Z,17.47
2018-08-30T05:00:14.129Z,12.50
2018-08-30T05:01:14.009Z,9.16
2018-08-30T05:02:13.886Z,4.49
2018-08-30T05:03:13.763Z,3.34
2018-08-30T05:04:13.644Z,1.90
2018-08-30T05:05:13.516Z,1.81
2018-08-30T05:06:13.398Z,0.00
2018-08-30T05:07:13.275Z,0.00
2018-08-30T05:08:13.156Z,0.00
2018-08-30T05:09:13.027Z,0.00
2018-08-30T05:10:13.046Z,0.00
2018-08-30T05:11:12.781Z,0.00
2018-08-30T05:12:12.657Z,0.76
2018-08-30T05:13:12.675Z,1.43
2018-08-30T05:14:12.415Z,0.85
2018-08-30T05:15:12.292Z,0.00
2018-08-30T05:16:12.167Z,0.85
2018-08-30T05:17:12.048Z,2.00
2018-08-30T05:18:11.923Z,2.76
2018-08-30T05:19:11.800Z,2.67
2018-08-30T05:20:11.675Z,2.76
2018-08-30T05:21:11.553Z,4.39
2018-08-30T05:22:11.432Z,3.72
2018-08-30T05:23:11.389Z,2.86
2018-08-30T05:24:11.185Z,2.00
2018-08-30T05:25:11.062Z,2.76
2018-08-30T05:26:10.942Z,5.06
2018-08-30T05:27:10.817Z,6.21
2018-08-30T05:28:10.693Z,8.02
2018-08-30T05:29:10.572Z,10.41
2018-08-30T05:30:10.456Z,13.65
2018-08-30T05:31:10.371Z,14.80
2018-08-30T05:32:10.201Z,18.05
2018-08-30T05:33:10.080Z,23.39
2018-08-30T05:34:09.961Z,24.07
2018-08-30T05:35:09.839Z,23.97
2018-08-30T05:36:09.711Z,30.85
2018-08-30T05:37:09.588Z,32.18
2018-08-30T05:38:09.465Z,30.56
2018-08-30T05:39:09.341Z,31.23
2018-08-30T05:40:09.218Z,32.95
2018-08-30T05:41:09.097Z,36.10
2018-08-30T05:42:08.975Z,42.31
2018-08-30T05:43:08.856Z,42.02
2018-08-30T05:44:08.727Z,40.40
2018-08-30T05:45:08.606Z,40.20
2018-08-30T05:46:08.480Z,38.58
2018-08-30T05:47:08.359Z,38.39
2018-08-30T05:48:08.236Z,40.01
2018-08-30T05:49:08.113Z,43.07
2018-08-30T05:50:07.993Z,45.46
2018-08-30T05:51:07.871Z,45.48
2018-08-30T05:52:07.744Z,43.95
2018-08-30T05:53:07.621Z,49.40
2018-08-30T05:54:07.499Z,44.81
2018-08-30T05:55:07.380Z,45.20
2018-08-30T05:56:07.253Z,42.14
2018-08-30T05:57:07.131Z,42.90
2018-08-30T05:58:07.031Z,41.18
2018-08-30T05:59:06.889Z,41.28
2018-08-30T06:00:06.765Z,43.95
2018-08-30T06:01:06.640Z,40.23
2018-08-30T06:02:06.521Z,35.62
2018-08-30T06:03:06.396Z,32.86
2018-08-30T06:04:06.274Z,34.48
2018-08-30T06:05:06.150Z,34.95
2018-08-30T06:06:06.026Z,38.10
2018-08-30T06:07:05.946Z,40.49
2018-08-30T06:08:05.780Z,41.06
2018-08-30T06:09:05.656Z,41.09
2018-08-30T06:10:05.537Z,45.20
2018-08-30T06:11:05.411Z,47.78
2018-08-30T06:12:05.289Z,48.73
2018-08-30T06:13:05.205Z,42.43
2018-08-30T06:14:05.046Z,41.18
2018-08-30T06:15:04.927Z,41.75
2018-08-30T06:16:04.799Z,42.52
2018-08-30T06:17:04.681Z,47.30
2018-08-30T06:18:04.557Z,46.72
2018-08-30T06:19:04.431Z,49.21
2018-08-30T06:20:04.310Z,49.02
2018-08-30T06:21:04.187Z,45.67
2018-08-30T06:22:04.066Z,45.10
2018-08-30T06:23:03.941Z,43.00
2018-08-30T06:24:03.820Z,41.18
2018-08-30T06:25:03.698Z,41.28
2018-08-30T06:26:03.578Z,39.37
2018-08-30T06:27:03.451Z,38.12
2018-08-30T06:28:03.329Z,41.85
2018-08-30T06:29:03.207Z,37.17
2018-08-30T06:30:03.087Z,31.63
2018-08-30T06:31:02.982Z,29.14
2018-08-30T06:32:02.857Z,27.33
2018-08-30T06:33:02.718Z,22.26
2018-08-30T06:34:02.601Z,19.20
2018-08-30T06:35:02.507Z,18.63
2018-08-30T06:36:02.356Z,16.14
2018-08-30T06:37:02.227Z,12.90
2018-08-30T06:38:02.114Z,10.22
2018-08-30T06:39:01.996Z,8.97
2018-08-30T06:40:01.860Z,9.55
2018-08-30T06:41:01.740Z,8.88
2018-08-30T06:42:01.614Z,9.26
2018-08-30T06:43:01.512Z,9.83
2018-08-30T06:44:01.371Z,12.79
2018-08-30T06:45:01.248Z,13.28
2018-08-30T06:46:01.123Z,16.52
2018-08-30T06:47:01.003Z,15.95
2018-08-30T06:48:00.880Z,16.34
2018-08-30T06:49:00.794Z,16.53
2018-08-30T06:50:00.633Z,15.48
2018-08-30T06:51:00.509Z,14.32
2018-08-30T06:52:00.388Z,11.46
2018-08-30T06:53:00.264Z,8.88
2018-08-30T06:54:00.168Z,6.78
2018-08-30T06:55:00.046Z,6.49
2018-08-30T06:55:59.897Z,7.35
2018-08-30T06:56:59.778Z,6.87
2018-08-30T06:57:59.653Z,6.01
2018-08-30T06:58:59.527Z,4.77
2018-08-30T06:59:59.404Z,3.53
2018-08-30T07:00:59.299Z,2.86
2018-08-30T07:01:59.173Z,4.10
2018-08-30T07:02:59.043Z,3.44
2018-08-30T07:03:58.915Z,1.34
2018-08-30T07:04:58.794Z,0.67
2018-08-30T07:05:58.668Z,0.00
2018-08-30T07:06:58.545Z,0.00
2018-08-30T07:07:58.463Z,2.29
2018-08-30T07:08:58.302Z,4.49
2018-08-30T07:09:58.175Z,9.07
2018-08-30T07:10:58.054Z,11.36
2018-08-30T07:11:57.934Z,12.13
2018-08-30T07:12:57.808Z,13.28
2018-08-30T07:13:57.687Z,12.61
2018-08-30T07:14:57.592Z,11.85
2018-08-30T07:15:57.441Z,12.90
2018-08-30T07:16:57.324Z,11.66
2018-08-30T07:17:57.244Z,9.55
2018-08-30T07:18:57.075Z,9.65
2018-08-30T07:19:56.950Z,11.94
2018-08-30T07:20:56.856Z,14.43
2018-08-30T07:21:56.708Z,16.43
2018-08-30T07:22:56.581Z,16.53
2018-08-30T07:23:56.459Z,15.00
2018-08-30T07:24:56.335Z,14.33
2018-08-30T07:25:56.213Z,14.04
2018-08-30T07:26:56.092Z,14.81
2018-08-30T07:27:55.968Z,15.95
2018-08-30T07:28:55.845Z,17.00
2018-08-30T07:29:55.723Z,15.86
2018-08-30T07:30:55.599Z,15.29
2018-08-30T07:31:55.487Z,15.95
2018-08-30T07:32:55.357Z,15.29
2018-08-30T07:33:55.233Z,12.80
2018-08-30T07:34:55.218Z,14.23
2018-08-30T07:35:54.989Z,18.25
2018-08-30T07:36:54.865Z,16.82
2018-08-30T07:37:54.745Z,14.04
2018-08-30T07:38:54.622Z,18.25
2018-08-30T07:39:54.498Z,17.77
2018-08-30T07:40:54.377Z,20.35
2018-08-30T07:41:54.253Z,34.88
2018-08-30T07:42:54.129Z,30.58
2018-08-30T07:43:54.009Z,25.03
2018-08-30T07:44:53.887Z,44.62
2018-08-30T07:45:53.764Z,37.93
2018-08-30T07:46:53.643Z,32.03
2018-08-30T07:47:53.520Z,27.72
2018-08-30T07:48:53.396Z,39.48
2018-08-30T07:49:53.279Z,34.51
2018-08-30T07:50:53.221Z,40.15
2018-08-30T07:51:53.033Z,45.41
2018-08-30T07:52:52.910Z,46.75
2018-08-30T07:53:52.787Z,38.62
2018-08-30T07:54:52.670Z,38.14
2018-08-30T07:55:52.544Z,40.15
2018-08-30T07:56:52.419Z,41.87
2018-08-30T07:57:52.300Z,43.02
2018-08-30T07:58:52.175Z,47.13
2018-08-30T07:59:52.066Z,48.75
2018-08-30T08:00:51.932Z,48.57
2018-08-30T08:01:51.808Z,65.61
2018-08-30T08:02:51.689Z,67.97
2018-08-30T08:03:51.563Z,47.34
2018-08-30T08:04:51.440Z,42.56
2018-08-30T08:05:51.324Z,54.23
2018-08-30T08:06:51.198Z,54.43
2018-08-30T08:07:51.076Z,54.61
2018-08-30T08:08:50.955Z,60.35
2018-08-30T08:09:50.833Z,61.31
2018-08-30T08:10:50.710Z,56.82
2018-08-30T08:11:50.605Z,58.06
2018-08-30T08:12:50.522Z,54.52
2018-08-30T08:13:50.345Z,56.24
2018-08-30T08:14:50.222Z,50.50
2018-08-30T08:15:50.101Z,44.69
2018-08-30T08:16:49.980Z,61.15
2018-08-30T08:17:49.862Z,67.47
2018-08-30T08:18:49.736Z,48.23
2018-08-30T08:19:49.616Z,46.67
2018-08-30T08:20:49.500Z,37.99
2018-08-30T08:21:49.375Z,37.80
2018-08-30T08:22:49.249Z,57.42
2018-08-30T08:23:49.129Z,68.96
2018-08-30T08:24:49.052Z,53.85
2018-08-30T08:25:48.886Z,49.93
2018-08-30T08:26:48.761Z,66.38
2018-08-30T08:27:48.646Z,56.24
2018-08-30T08:28:48.525Z,59.30
2018-08-30T08:29:48.398Z,56.24
2018-08-30T08:30:48.274Z,61.79
2018-08-30T08:31:48.158Z,54.23
2018-08-30T08:32:48.033Z,49.16
2018-08-30T08:33:47.910Z,52.22
2018-08-30T08:34:47.789Z,63.80
2018-08-30T08:35:47.667Z,54.43
2018-08-30T08:36:47.546Z,47.63
2018-08-30T08:37:47.423Z,48.02
2018-08-30T08:38:47.302Z,42.37
2018-08-30T08:39:47.181Z,39.22
2018-08-30T08:40:47.060Z,35.49
2018-08-30T08:41:46.935Z,37.02
2018-08-30T08:42:46.814Z,40.26
2018-08-30T08:43:46.690Z,41.99
2018-08-30T08:44:46.571Z,39.89
2018-08-30T08:45:46.452Z,45.15
2018-08-30T08:46:46.326Z,56.15
2018-08-30T08:47:46.259Z,55.10
2018-08-30T08:48:46.082Z,44.19
2018-08-30T08:49:45.963Z,39.40
2018-08-30T08:50:45.884Z,39.98
2018-08-30T08:51:45.716Z,45.34
2018-08-30T08:52:45.593Z,44.48
2018-08-30T08:53:45.555Z,48.59
2018-08-30T08:54:45.349Z,51.07
2018-08-30T08:55:45.229Z,51.75
2018-08-30T08:56:45.108Z,52.03
2018-08-30T08:57:44.986Z,46.20
2018-08-30T08:58:44.898Z,54.14
2018-08-30T08:59:44.740Z,50.41
2018-08-30T09:00:44.619Z,45.62
2018-08-30T09:01:44.496Z,59.49
2018-08-30T09:02:44.375Z,49.07
2018-08-30T09:03:44.256Z,55.51
2018-08-30T09:04:44.132Z,41.82
2018-08-30T09:05:44.010Z,67.56
2018-08-30T09:06:43.889Z,51.89
2018-08-30T09:07:43.823Z,41.00
2018-08-30T09:08:43.644Z,70.79
2018-08-30T09:09:43.522Z,84.53
2018-08-30T09:10:43.400Z,80.41
2018-08-30T09:11:43.279Z,79.88
2018-08-30T09:12:43.159Z,96.66
2018-08-30T09:13:43.038Z,99.99
2018-08-30T09:14:42.918Z,99.99
2018-08-30T09:15:42.794Z,99.99
2018-08-30T09:16:42.672Z,92.77
2018-08-30T09:17:42.551Z,99.99
2018-08-30T09:18:42.433Z,99.99
2018-08-30T09:19:42.310Z,99.99
2018-08-30T09:20:42.192Z,99.99
2018-08-30T09:21:42.071Z,99.99
2018-08-30T09:22:41.950Z,99.99
2018-08-30T09:23:41.829Z,99.99
2018-08-30T09:24:41.709Z,99.99
2018-08-30T09:25:41.591Z,99.99
2018-08-30T09:26:41.509Z,99.99
2018-08-30T09:27:41.348Z,99.99
2018-08-30T09:28:41.230Z,99.99
2018-08-30T09:29:41.112Z,99.99
2018-08-30T09:30:40.989Z,99.99
2018-08-30T09:31:40.871Z,99.99
2018-08-30T09:32:40.752Z,99.99
2018-08-30T09:33:40.638Z,99.99
2018-08-30T09:34:40.513Z,99.99
2018-08-30T09:35:40.393Z,99.99
2018-08-30T09:36:40.271Z,99.99
2018-08-30T09:37:40.153Z,99.99
2018-08-30T09:38:40.033Z,99.99
2018-08-30T09:39:39.915Z,99.99
2018-08-30T09:40:39.793Z,99.99
2018-08-30T09:41:39.679Z,99.99
2018-08-30T09:42:39.554Z,99.99
2018-08-30T09:43:39.475Z,99.99
2018-08-30T09:44:39.315Z,99.99
2018-08-30T09:45:39.203Z,99.99
2018-08-30T09:46:39.073Z,99.99
2018-08-30T09:47:38.955Z,99.99
2018-08-30T09:48:38.836Z,99.99
2018-08-30T09:49:38.740Z,99.99
2018-08-30T09:50:38.597Z,99.99
2018-08-30T09:51:38.476Z,99.99
2018-08-30T09:52:38.357Z,99.99
2018-08-30T09:53:38.238Z,99.99
2018-08-30T09:54:38.121Z,99.99
2018-08-30T09:55:38.047Z,99.99
2018-08-30T09:56:37.915Z,99.99
2018-08-30T09:57:37.817Z,99.99
2018-08-30T09:58:37.643Z,99.99
2018-08-30T09:59:37.524Z,99.99
2018-08-30T10:00:37.406Z,99.99
2018-08-30T10:01:37.291Z,99.99
2018-08-30T10:02:37.168Z,99.99
2018-08-30T10:03:37.055Z,99.99
2018-08-30T10:04:36.992Z,99.99
2018-08-30T10:05:36.813Z,99.99
2018-08-30T10:06:36.695Z,99.99
2018-08-30T10:07:36.574Z,99.99
2018-08-30T10:08:36.458Z,99.99
2018-08-30T10:09:36.340Z,99.99
2018-08-30T10:10:36.222Z,99.99
2018-08-30T10:11:36.103Z,99.99
2018-08-30T10:12:35.985Z,99.99
2018-08-30T10:13:35.869Z,96.94
2018-08-30T10:14:35.751Z,99.99
2018-08-30T10:15:35.632Z,99.99
2018-08-30T10:16:35.518Z,99.99
2018-08-30T10:17:35.400Z,99.99
2018-08-30T10:18:35.285Z,99.99
2018-08-30T10:19:35.164Z,99.99
2018-08-30T10:20:35.046Z,99.99
2018-08-30T10:21:34.973Z,96.56
2018-08-30T10:22:34.813Z,96.70
2018-08-30T10:23:34.695Z,91.60
2018-08-30T10:24:34.580Z,85.38
2018-08-30T10:25:34.464Z,90.68
2018-08-30T10:26:34.344Z,85.77
2018-08-30T10:27:34.226Z,85.19
2018-08-30T10:28:34.128Z,89.33
2018-08-30T10:29:33.994Z,84.70
2018-08-30T10:30:33.878Z,83.16
2018-08-30T10:31:33.821Z,82.10
2018-08-30T10:32:33.643Z,89.91
2018-08-30T10:33:33.526Z,82.39
2018-08-30T10:34:33.414Z,82.34
2018-08-30T10:35:33.293Z,83.16
2018-08-30T10:36:33.177Z,85.38
2018-08-30T10:37:33.062Z,88.12
2018-08-30T10:38:32.943Z,82.38
2018-08-30T10:39:32.828Z,77.94
2018-08-30T10:40:32.712Z,78.81
2018-08-30T10:41:32.596Z,76.78
2018-08-30T10:42:32.477Z,77.03
2018-08-30T10:43:32.364Z,76.32
2018-08-30T10:44:32.249Z,78.58
2018-08-30T10:45:32.131Z,79.35
2018-08-30T10:46:32.014Z,83.88
2018-08-30T10:47:31.895Z,83.63
2018-08-30T10:48:31.780Z,76.98
2018-08-30T10:49:31.689Z,78.29
2018-08-30T10:50:31.551Z,78.92
2018-08-30T10:51:31.433Z,77.71
2018-08-30T10:52:31.316Z,76.61
2018-08-30T10:53:31.201Z,77.09
2018-08-30T10:54:31.084Z,78.77
2018-08-30T10:55:30.965Z,78.81
2018-08-30T10:56:30.854Z,73.44
2018-08-30T10:57:30.734Z,72.77
2018-08-30T10:58:30.624Z,71.26
2018-08-30T10:59:30.502Z,71.39
2018-08-30T11:00:30.385Z,70.39
2018-08-30T11:01:30.276Z,70.74
2018-08-30T11:02:30.154Z,71.32
2018-08-30T11:03:30.042Z,74.73
2018-08-30T11:04:29.923Z,72.58
2018-08-30T11:05:29.810Z,71.09
2018-08-30T11:06:29.693Z,72.83
2018-08-30T11:07:29.574Z,74.79
2018-08-30T11:08:29.460Z,71.83
2018-08-30T11:09:29.345Z,73.02
2018-08-30T11:10:29.229Z,72.71
2018-08-30T11:11:29.117Z,72.52
2018-08-30T11:12:28.999Z,73.22
2018-08-30T11:13:28.907Z,70.17
2018-08-30T11:14:28.769Z,69.98
2018-08-30T11:15:28.652Z,68.04
2018-08-30T11:16:28.539Z,69.65
2018-08-30T11:17:28.423Z,69.84
2018-08-30T11:18:28.310Z,69.32
2018-08-30T11:19:28.239Z,70.70
2018-08-30T11:20:28.078Z,71.02
2018-08-30T11:21:27.962Z,73.05
2018-08-30T11:22:27.846Z,73.47
2018-08-30T11:23:27.731Z,72.95
2018-08-30T11:24:27.641Z,73.43
2018-08-30T11:25:27.500Z,75.30
2018-08-30T11:26:27.383Z,73.63
2018-08-30T11:27:27.267Z,70.10
2018-08-30T11:28:27.151Z,69.20
2018-08-30T11:29:27.038Z,70.58
2018-08-30T11:30:26.921Z,70.42
2018-08-30T11:31:26.809Z,69.36
2018-08-30T11:32:26.692Z,71.30
2018-08-30T11:33:26.576Z,70.04
2018-08-30T11:34:26.460Z,69.98
2018-08-30T11:35:26.345Z,68.17
2018-08-30T11:36:26.230Z,70.20
2018-08-30T11:37:26.116Z,69.56
2018-08-30T11:38:25.999Z,66.75
2018-08-30T11:39:25.887Z,68.33
2018-08-30T11:40:25.770Z,69.39
2018-08-30T11:41:25.689Z,70.97
2018-08-30T11:42:25.562Z,69.65
2018-08-30T11:43:25.492Z,68.10
2018-08-30T11:44:25.371Z,68.68
2018-08-30T11:45:25.197Z,69.68
2018-08-30T11:46:25.080Z,66.50
2018-08-30T11:47:24.966Z,66.88
2018-08-30T11:48:24.848Z,65.92
2018-08-30T11:49:24.735Z,66.59
2018-08-30T11:50:24.621Z,66.69
2018-08-30T11:51:24.506Z,67.52
2018-08-30T11:52:24.556Z,68.82
2018-08-30T11:53:24.275Z,68.72
2018-08-30T11:54:24.161Z,67.40
2018-08-30T11:55:24.046Z,66.91
2018-08-30T11:56:23.930Z,67.08
2018-08-30T11:57:23.817Z,67.94
2018-08-30T11:58:23.703Z,67.01
2018-08-30T11:59:23.591Z,66.56
2018-08-30T12:00:23.477Z,70.78
2018-08-30T12:01:23.366Z,72.61
2018-08-30T12:02:23.249Z,69.94
2018-08-30T12:03:23.133Z,66.59
2018-08-30T12:04:23.016Z,66.88
2018-08-30T12:05:22.903Z,67.59
2018-08-30T12:06:22.786Z,64.76
2018-08-30T12:07:22.672Z,69.84
2018-08-30T12:08:22.607Z,70.36
2018-08-30T12:09:22.443Z,67.36
2018-08-30T12:10:22.413Z,66.43
2018-08-30T12:11:22.458Z,66.43
2018-08-30T12:12:22.099Z,64.47
2018-08-30T12:13:21.987Z,66.30
2018-08-30T12:14:21.870Z,67.30
2018-08-30T12:15:21.754Z,63.63
2018-08-30T12:16:21.651Z,64.59
2018-08-30T12:17:21.526Z,64.50
2018-08-30T12:18:21.413Z,64.79
2018-08-30T12:19:21.298Z,64.89
2018-08-30T12:20:21.234Z,64.24
2018-08-30T12:21:21.070Z,64.72
2018-08-30T12:22:20.955Z,62.88
2018-08-30T12:23:20.838Z,61.89
2018-08-30T12:24:20.724Z,63.43
2018-08-30T12:25:20.610Z,65.40
2018-08-30T12:26:20.492Z,64.40
2018-08-30T12:27:20.387Z,64.95
2018-08-30T12:28:20.362Z,63.24
2018-08-30T12:29:20.153Z,60.62
2018-08-30T12:30:20.058Z,59.75
2018-08-30T12:31:20.018Z,61.05
2018-08-30T12:32:19.861Z,63.08
2018-08-30T12:33:19.696Z,62.44
2018-08-30T12:34:19.623Z,64.21
2018-08-30T12:35:19.538Z,63.27
2018-08-30T12:36:19.404Z,63.18
2018-08-30T12:37:19.241Z,62.40
2018-08-30T12:38:19.117Z,61.11
2018-08-30T12:39:19.032Z,62.82
2018-08-30T12:40:18.999Z,63.31
2018-08-30T12:41:18.809Z,63.15
2018-08-30T12:42:18.703Z,64.76
2018-08-30T12:43:18.613Z,66.75
2018-08-30T12:44:18.478Z,65.05
2018-08-30T12:45:18.340Z,64.40
2018-08-30T12:46:18.312Z,63.24
2018-08-30T12:47:18.102Z,62.59
2018-08-30T12:48:17.989Z,62.43
2018-08-30T12:49:17.886Z,61.36
2018-08-30T12:50:17.935Z,61.98
2018-08-30T12:51:17.897Z,61.40
2018-08-30T12:52:17.600Z,59.49
2018-08-30T12:53:17.506Z,58.78